Hlavní strana
METAR-TAF:

METAR-TAF

Letiště :

Óita, Japonsko

zeměpisná šířka: 33-29N, zeměpisná délka: 131-44E, výška: 5 m

Aktuální stav počasí

Zpráva byla vytvořena před 31 minutami, v 01:00 UTC
Severoseverovýchodní vítr 6 kt, proměnlivý mezi severoseverozápadním a severovýchodním
Teplota 10°C
Vlhkost vzduchu 71%
Tlak 1031 hPa
Viditelnost 10 km a více
Skoro jasno ve výšce 3000 ft
Oblačno až skoro zataženo ve výšce 13000 ft
Oblačno až skoro zataženo

METAR: RJFO 200100Z 02006KT 340V050 9999 FEW030 BKN130 BKN/// 10/05 Q1031

Čas: 10:31 (01:31 UTC)

Předpověď počasí

Zpráva byla vytvořena před 2 hodinami a 25 minutami, v 23:06 UTC
Předpověď platná od 20 v 00 UTC do 21 v 06 UTC
Západojihozápadní vítr 4 kt
Viditelnost 10 km a více
Skoro jasno ve výšce 2000 ft
Polojasno ve výšce 5000 ft
Změna
od 20 v 00 UTC do 20 v 02 UTC
Severoseverovýchodní vítr 8 kt
Změna
od 21 v 03 UTC do 21 v 06 UTC
Východní vítr 8 kt

TAF: RJFO 192306Z 2000/2106 24004KT 9999 FEW020 SCT050 BECMG 2000/2002 02008KT BECMG 2103/2106 10008KT

Stav a předpovědi počasí z více než 4 000 letišť (zprávy METAR a TAF).

Červené a žluté tečky na mapě představují dostupné meteorologické stanice.

Když kurzor umístíte na tečku, zobrazí se název stanice.

Pak kliknutím zobrazíte stav a předpověď počasí.

Chcete-li změnit mapu, kliknutím na zelené tlačítko se znaménkem +mapu přiblížíte, kliknutím na zelené tlačítko se znaménkem – mapu oddálíte a kliknutím na zelené šipky přejdete na sousední mapy.


METAR-TAF: